LGSY Airport Information

Runway Information
Runway 18 Length 9849 ft width 98 ft
Elevation 14 ft Threshold 541 ft Heading 176
Runway 36 Length 9849 ft Width 98 ft
Elevation 39 ft Threshold 2625 ft Heading 356
Airport Frequencies
Type A/G Name RDO Frequency 563.7 MHZ
Type APP Name APP Frequency 123.2 MHZ
Type TWR Name TWR Frequency 123.2 MHZ
Airport Navaids
Type VOR-DME Name Skiros Frequency 116600 KHZ
Type TACAN Name Skyros Frequency 116100 KHZ
Airport Weather Information & NOTAM
ADDS - METARS form results

(1044 UTC 17 October 2021)
Data provider http://aviationweather.gov/metar/data/
 
Forecast for: LGSY (SKIROS , GR)
Text: TAF LGSY 170800Z 1709/1718 01010KT 9999 FEW012 BKN025
Forecast period: 0900 to 1800 UTC 17 October 2021
Forecast type: FROM: standard forecast or significant change
Winds: from the N (10 degrees) at 12 MPH (10 knots; 5.1 m/s)
Visibility: 6 or more miles (10+ km)
Ceiling: 2500 feet AGL
Clouds: few clouds at 1200 feet AGL
broken clouds at 2500 feet AGL
Weather: no significant weather forecast for this period
Text: PROB40
Forecast period: 0900 to 1500 UTC 17 October 2021
Forecast type: TEMPORARY: The following changes expected for less than half the time period
Visibility: 2.49 miles (4.01 km)
Ceiling: unknown
Clouds: missing
Weather: RA  (moderate rain)